Hanjin Irene — H3QD — position and weather

sailwx.info

Track history (hours):
 
Tides and Currents Weather Stations Pressure Air Temp Water Temp Dewpoint Dewpoint Depression Visibility Wind Speed Wind Dir Waves Ship Positions

Hanjin Irene

Last reported at 2017-Nov-05 19:14 UTC. Time now 2017-Nov-18 02:43 UTC.
Position N 45°16' E 036°28'.
Warning: this ship's position is 12 days out of date.

Length 107 m; draft 2.5 m.

Type: Cargo ship. MMSI: 320228000.

Date/timePositionNaut miles runAvg speedWind from/ knotsBaromVisibWave heightAir tempDewpointWater temp
2017-Nov-05 19:14N 45°16' E 036°28'3 7.0
2017-Nov-05 18:52N 45°18' E 036°29'3 7.4
2017-Nov-05 18:30N 45°19' E 036°33'3 5.8
2017-Nov-05 18:00N 45°20' E 036°36'3 6.8
2017-Nov-05 17:30N 45°23' E 036°40'4 7.4
2017-Nov-05 17:00N 45°26' E 036°41'2 3.2
2017-Nov-05 16:30N 45°28' E 036°41'1 2.8
2017-Nov-05 16:00N 45°29' E 036°40'0 0.3
2017-Nov-05 15:30N 45°29' E 036°40'0 0.0
2017-Nov-05 15:00N 45°29' E 036°40'0 0.0
2017-Nov-05 14:30N 45°29' E 036°40'0 0.0
2017-Nov-05 14:00N 45°29' E 036°40'0 0.0
2017-Nov-05 13:24N 45°29' E 036°40'0 0.0
2017-Nov-05 13:00N 45°29' E 036°40'0 0.0
2017-Nov-05 12:30N 45°29' E 036°40'0 0.0
2017-Nov-05 12:00N 45°29' E 036°40'0 0.0
2017-Nov-05 11:30N 45°29' E 036°40'0 0.0
2017-Nov-05 11:00N 45°29' E 036°40'0 0.0
2017-Nov-05 10:30N 45°29' E 036°40'0 0.0
2017-Nov-05 09:57N 45°29' E 036°40'0 0.0
2017-Nov-05 09:30N 45°29' E 036°40'0 0.0
2017-Nov-05 09:00N 45°29' E 036°40'0 0.0
2017-Nov-05 08:30N 45°29' E 036°40'0 0.0
2017-Nov-05 08:00N 45°29' E 036°40'0 0.0
2017-Nov-05 07:30N 45°29' E 036°40'0 0.0
2017-Nov-05 07:00N 45°29' E 036°40'0 0.0
2017-Nov-05 06:03N 45°29' E 036°40'0 0.0
2017-Nov-05 05:48N 45°29' E 036°40'0 0.0
2017-Nov-05 05:24N 45°29' E 036°40'0 0.0
2017-Nov-05 05:00N 45°29' E 036°40'0 0.0
2017-Nov-05 04:30N 45°29' E 036°40'0 0.0
2017-Nov-05 03:57N 45°29' E 036°40'0 0.0
2017-Nov-05 03:24N 45°29' E 036°40'0 0.0
2017-Nov-05 02:57N 45°29' E 036°40'0 0.0
2017-Nov-05 02:30N 45°29' E 036°40'0 0.0
2017-Nov-05 02:00N 45°29' E 036°40'0 0.0
2017-Nov-05 01:30N 45°29' E 036°40'0 0.0
2017-Nov-05 01:00N 45°29' E 036°40'0 0.0
2017-Nov-05 00:30N 45°29' E 036°40'0 0.0
2017-Nov-05 00:00N 45°29' E 036°40'0 0.0
2017-Nov-04 23:30N 45°29' E 036°40'0 0.0
2017-Nov-04 23:00N 45°29' E 036°40'0 0.0
2017-Nov-04 22:30N 45°29' E 036°40'0 0.0
2017-Nov-04 21:54N 45°29' E 036°40'0 0.0
2017-Nov-04 21:27N 45°29' E 036°40'0 0.0
2017-Nov-04 21:00N 45°29' E 036°40'0 0.0
2017-Nov-04 20:30N 45°29' E 036°40'0 0.0
2017-Nov-04 20:00N 45°29' E 036°40'0 0.0
2017-Nov-04 19:30N 45°29' E 036°40'0 0.0
2017-Nov-04 18:54N 45°29' E 036°40'0 0.0
2017-Nov-04 18:30N 45°29' E 036°40'0 0.0
2017-Nov-04 18:00N 45°29' E 036°40'0 0.0
2017-Nov-04 17:30N 45°29' E 036°40'0 0.0
2017-Nov-04 17:00N 45°29' E 036°40'0 0.1
2017-Nov-04 16:30N 45°29' E 036°40'1 1.5
2017-Nov-04 16:00N 45°30' E 036°41'  
Track history (hours):
 
Tides and Currents Weather Stations Pressure Air Temp Water Temp Dewpoint Dewpoint Depression Visibility Wind Speed Wind Dir Waves Ship Positions

Hanjin Irene

Last reported at 2017-Nov-05 19:14 UTC. Time now 2017-Nov-18 02:43 UTC.
Position N 45°16' E 036°28'.
Warning: this ship's position is 12 days out of date.

Length 107 m; draft 2.5 m.

Type: Cargo ship. MMSI: 320228000.

Date/timePositionNaut miles runAvg speedWind from/ knotsBaromVisibWave heightAir tempDewpointWater temp
2017-Nov-05 19:14N 45°16' E 036°28'3 7.0
2017-Nov-05 18:52N 45°18' E 036°29'3 7.4
2017-Nov-05 18:30N 45°19' E 036°33'3 5.8
2017-Nov-05 18:00N 45°20' E 036°36'3 6.8
2017-Nov-05 17:30N 45°23' E 036°40'4 7.4
2017-Nov-05 17:00N 45°26' E 036°41'2 3.2
2017-Nov-05 16:30N 45°28' E 036°41'1 2.8
2017-Nov-05 16:00N 45°29' E 036°40'0 0.3
2017-Nov-05 15:30N 45°29' E 036°40'0 0.0
2017-Nov-05 15:00N 45°29' E 036°40'0 0.0
2017-Nov-05 14:30N 45°29' E 036°40'0 0.0
2017-Nov-05 14:00N 45°29' E 036°40'0 0.0
2017-Nov-05 13:24N 45°29' E 036°40'0 0.0
2017-Nov-05 13:00N 45°29' E 036°40'0 0.0
2017-Nov-05 12:30N 45°29' E 036°40'0 0.0
2017-Nov-05 12:00N 45°29' E 036°40'0 0.0
2017-Nov-05 11:30N 45°29' E 036°40'0 0.0
2017-Nov-05 11:00N 45°29' E 036°40'0 0.0
2017-Nov-05 10:30N 45°29' E 036°40'0 0.0
2017-Nov-05 09:57N 45°29' E 036°40'0 0.0
2017-Nov-05 09:30N 45°29' E 036°40'0 0.0
2017-Nov-05 09:00N 45°29' E 036°40'0 0.0
2017-Nov-05 08:30N 45°29' E 036°40'0 0.0
2017-Nov-05 08:00N 45°29' E 036°40'0 0.0
2017-Nov-05 07:30N 45°29' E 036°40'0 0.0
2017-Nov-05 07:00N 45°29' E 036°40'0 0.0
2017-Nov-05 06:03N 45°29' E 036°40'0 0.0
2017-Nov-05 05:48N 45°29' E 036°40'0 0.0
2017-Nov-05 05:24N 45°29' E 036°40'0 0.0
2017-Nov-05 05:00N 45°29' E 036°40'0 0.0
2017-Nov-05 04:30N 45°29' E 036°40'0 0.0
2017-Nov-05 03:57N 45°29' E 036°40'0 0.0
2017-Nov-05 03:24N 45°29' E 036°40'0 0.0
2017-Nov-05 02:57N 45°29' E 036°40'0 0.0
2017-Nov-05 02:30N 45°29' E 036°40'0 0.0
2017-Nov-05 02:00N 45°29' E 036°40'0 0.0
2017-Nov-05 01:30N 45°29' E 036°40'0 0.0
2017-Nov-05 01:00N 45°29' E 036°40'0 0.0
2017-Nov-05 00:30N 45°29' E 036°40'0 0.0
2017-Nov-05 00:00N 45°29' E 036°40'0 0.0
2017-Nov-04 23:30N 45°29' E 036°40'0 0.0
2017-Nov-04 23:00N 45°29' E 036°40'0 0.0
2017-Nov-04 22:30N 45°29' E 036°40'0 0.0
2017-Nov-04 21:54N 45°29' E 036°40'0 0.0
2017-Nov-04 21:27N 45°29' E 036°40'0 0.0
2017-Nov-04 21:00N 45°29' E 036°40'0 0.0
2017-Nov-04 20:30N 45°29' E 036°40'0 0.0
2017-Nov-04 20:00N 45°29' E 036°40'0 0.0
2017-Nov-04 19:30N 45°29' E 036°40'0 0.0
2017-Nov-04 18:54N 45°29' E 036°40'0 0.0
2017-Nov-04 18:30N 45°29' E 036°40'0 0.0
2017-Nov-04 18:00N 45°29' E 036°40'0 0.0
2017-Nov-04 17:30N 45°29' E 036°40'0 0.0
2017-Nov-04 17:00N 45°29' E 036°40'0 0.1
2017-Nov-04 16:30N 45°29' E 036°40'1 1.5
2017-Nov-04 16:00N 45°30' E 036°41'  

Dump ship's entire track history